createdAt,value
2019-01-14T00:02:14.556Z,21.69
2019-01-14T00:04:42.944Z,21.69
2019-01-14T00:07:11.321Z,21.67
2019-01-14T00:09:39.775Z,21.66
2019-01-14T00:12:08.152Z,21.65
2019-01-14T00:14:36.530Z,21.62
2019-01-14T00:17:05.347Z,21.62
2019-01-14T00:19:33.728Z,21.62
2019-01-14T00:22:02.108Z,21.61
2019-01-14T00:24:30.477Z,21.59
2019-01-14T00:26:58.866Z,21.58
2019-01-14T00:29:27.248Z,21.57
2019-01-14T00:31:55.626Z,21.56
2019-01-14T00:34:24.383Z,21.56
2019-01-14T00:36:52.754Z,21.53
2019-01-14T00:39:21.141Z,21.52
2019-01-14T00:41:49.512Z,21.51
2019-01-14T00:44:17.877Z,21.50
2019-01-14T00:46:46.265Z,21.49
2019-01-14T00:49:14.638Z,21.49
2019-01-14T00:51:43.013Z,21.47
2019-01-14T00:54:11.393Z,21.48
2019-01-14T00:56:39.775Z,21.46
2019-01-14T00:59:08.156Z,21.45
2019-01-14T01:01:36.530Z,21.44
2019-01-14T01:04:04.986Z,21.45
2019-01-14T01:06:34.218Z,21.43
2019-01-14T01:09:02.955Z,21.40
2019-01-14T01:11:31.344Z,21.40
2019-01-14T01:13:59.717Z,21.41
2019-01-14T01:16:28.101Z,21.39
2019-01-14T01:18:56.468Z,21.39
2019-01-14T01:21:24.852Z,21.39
2019-01-14T01:23:53.213Z,21.37
2019-01-14T01:26:21.594Z,21.37
2019-01-14T01:28:49.971Z,21.35
2019-01-14T01:31:18.359Z,21.34
2019-01-14T01:33:46.719Z,21.32
2019-01-14T01:36:15.106Z,21.33
2019-01-14T01:38:43.469Z,21.31
2019-01-14T01:41:11.851Z,21.32
2019-01-14T01:43:40.219Z,21.31
2019-01-14T01:46:08.590Z,21.29
2019-01-14T01:48:36.976Z,21.29
2019-01-14T01:51:05.354Z,21.28
2019-01-14T01:53:34.647Z,21.28
2019-01-14T01:56:03.015Z,21.26
2019-01-14T01:58:31.395Z,21.26
2019-01-14T02:00:59.773Z,21.25
2019-01-14T02:03:28.152Z,21.25
2019-01-14T02:05:56.524Z,21.24
2019-01-14T02:08:24.899Z,21.22
2019-01-14T02:10:53.279Z,21.22
2019-01-14T02:13:21.657Z,21.21
2019-01-14T02:15:50.026Z,21.20
2019-01-14T02:18:18.409Z,21.19
2019-01-14T02:20:46.779Z,21.19
2019-01-14T02:23:15.165Z,21.18
2019-01-14T02:25:43.542Z,21.16
2019-01-14T02:28:11.920Z,21.16
2019-01-14T02:30:40.287Z,21.15
2019-01-14T02:33:08.678Z,21.14
2019-01-14T02:35:37.053Z,21.13
2019-01-14T02:38:05.431Z,21.13
2019-01-14T02:40:33.793Z,21.12
2019-01-14T02:43:02.164Z,21.12
2019-01-14T02:45:30.543Z,21.11
2019-01-14T02:47:58.922Z,21.10
2019-01-14T02:50:27.307Z,21.10
2019-01-14T02:52:55.683Z,21.09
2019-01-14T02:55:24.077Z,21.10
2019-01-14T02:57:52.460Z,21.09
2019-01-14T03:00:24.050Z,21.06
2019-01-14T03:02:52.421Z,21.06
2019-01-14T03:05:20.810Z,21.04
2019-01-14T03:07:49.327Z,21.06
2019-01-14T03:10:17.774Z,21.06
2019-01-14T03:12:46.098Z,21.04
2019-01-14T03:15:16.324Z,21.05
2019-01-14T03:17:44.701Z,21.04
2019-01-14T03:20:15.333Z,21.02
2019-01-14T03:22:44.236Z,21.02
2019-01-14T03:25:13.566Z,21.00
2019-01-14T03:27:41.924Z,20.99
2019-01-14T03:30:13.209Z,20.98
2019-01-14T03:32:41.603Z,20.99
2019-01-14T03:35:10.214Z,20.97
2019-01-14T03:37:38.740Z,20.97
2019-01-14T03:40:10.359Z,20.97
2019-01-14T03:42:38.754Z,20.97
2019-01-14T03:45:07.963Z,20.95
2019-01-14T03:47:36.339Z,20.95
2019-01-14T03:50:07.761Z,20.94
2019-01-14T03:52:36.139Z,20.93
2019-01-14T03:55:06.659Z,20.93
2019-01-14T03:57:35.899Z,20.91
2019-01-14T04:00:08.535Z,20.89
2019-01-14T04:02:36.923Z,20.88
2019-01-14T04:05:07.796Z,20.88
2019-01-14T04:07:36.160Z,20.87
2019-01-14T04:10:18.617Z,20.86
2019-01-14T04:12:46.986Z,20.87
2019-01-14T04:15:17.293Z,20.86
2019-01-14T04:17:45.688Z,20.84
2019-01-14T04:20:16.256Z,20.84
2019-01-14T04:22:44.922Z,20.84
2019-01-14T04:25:13.565Z,20.81
2019-01-14T04:27:41.965Z,20.81
2019-01-14T04:30:16.065Z,20.82
2019-01-14T04:32:44.438Z,20.80
2019-01-14T04:35:13.160Z,20.81
2019-01-14T04:37:41.548Z,20.79
2019-01-14T04:40:12.990Z,20.79
2019-01-14T04:42:41.349Z,20.78
2019-01-14T04:45:11.864Z,20.77
2019-01-14T04:47:40.248Z,20.76
2019-01-14T04:50:12.026Z,20.76
2019-01-14T04:52:40.408Z,20.75
2019-01-14T04:55:09.234Z,20.75
2019-01-14T04:57:37.614Z,20.75
2019-01-14T05:00:12.179Z,20.74
2019-01-14T05:02:40.554Z,20.75
2019-01-14T05:05:09.905Z,20.74
2019-01-14T05:07:38.285Z,20.73
2019-01-14T05:10:09.796Z,20.74
2019-01-14T05:12:38.163Z,20.73
2019-01-14T05:15:09.440Z,20.74
2019-01-14T05:17:37.813Z,20.71
2019-01-14T05:20:10.077Z,20.73
2019-01-14T05:22:38.452Z,20.71
2019-01-14T05:25:08.279Z,20.71
2019-01-14T05:27:36.818Z,20.71
2019-01-14T05:30:08.599Z,20.71
2019-01-14T05:32:36.987Z,20.69
2019-01-14T05:35:06.797Z,20.70
2019-01-14T05:37:37.798Z,20.70
2019-01-14T05:40:19.545Z,20.69
2019-01-14T05:42:47.922Z,20.69
2019-01-14T05:45:16.318Z,20.68
2019-01-14T05:47:44.693Z,20.66
2019-01-14T05:50:15.127Z,20.68
2019-01-14T05:52:43.948Z,20.68
2019-01-14T05:55:13.380Z,20.69
2019-01-14T05:57:41.856Z,20.69
2019-01-14T06:00:21.727Z,20.69
2019-01-14T06:02:50.109Z,20.68
2019-01-14T06:05:18.509Z,20.68
2019-01-14T06:07:46.882Z,20.67
2019-01-14T06:10:15.275Z,20.68
2019-01-14T06:12:43.668Z,20.68
2019-01-14T06:15:14.386Z,20.68
2019-01-14T06:17:42.771Z,20.68
2019-01-14T06:20:14.832Z,20.67
2019-01-14T06:22:43.264Z,20.67
2019-01-14T06:25:13.786Z,20.67
2019-01-14T06:27:42.169Z,20.67
2019-01-14T06:30:16.775Z,20.66
2019-01-14T06:32:45.164Z,20.66
2019-01-14T06:35:13.886Z,20.65
2019-01-14T06:37:42.279Z,20.66
2019-01-14T06:40:14.094Z,20.65
2019-01-14T06:42:42.489Z,20.64
2019-01-14T06:45:11.697Z,20.65
2019-01-14T06:47:40.152Z,20.65
2019-01-14T06:50:14.389Z,20.64
2019-01-14T06:52:42.948Z,20.64
2019-01-14T06:55:11.758Z,20.63
2019-01-14T06:57:40.169Z,20.63
2019-01-14T07:00:11.598Z,20.63
2019-01-14T07:02:39.985Z,20.63
2019-01-14T07:05:09.798Z,20.62
2019-01-14T07:07:38.190Z,20.61
2019-01-14T07:10:09.616Z,20.60
2019-01-14T07:12:38.003Z,20.60
2019-01-14T07:15:08.513Z,20.59
2019-01-14T07:17:37.888Z,20.59
2019-01-14T07:20:11.355Z,20.57
2019-01-14T07:22:39.810Z,20.58
2019-01-14T07:25:09.622Z,20.58
2019-01-14T07:27:38.008Z,20.59
2019-01-14T07:30:09.428Z,20.57
2019-01-14T07:32:37.940Z,20.58
2019-01-14T07:35:06.753Z,20.55
2019-01-14T07:37:35.149Z,20.56
2019-01-14T07:40:05.771Z,20.55
2019-01-14T07:42:34.165Z,20.54
2019-01-14T07:45:02.601Z,20.54
2019-01-14T07:47:30.989Z,20.53
2019-01-14T07:49:59.368Z,20.54
2019-01-14T07:52:27.754Z,20.53
2019-01-14T07:54:56.130Z,20.52
2019-01-14T07:57:24.499Z,20.52
2019-01-14T07:59:52.889Z,20.51
2019-01-14T08:02:21.271Z,20.49
2019-01-14T08:04:49.659Z,20.49
2019-01-14T08:07:18.032Z,20.48
2019-01-14T08:09:46.428Z,20.48
2019-01-14T08:12:14.806Z,20.48
2019-01-14T08:14:43.195Z,20.47
2019-01-14T08:17:11.571Z,20.46
2019-01-14T08:19:39.955Z,20.46
2019-01-14T08:22:08.512Z,20.44
2019-01-14T08:24:36.898Z,20.44
2019-01-14T08:27:05.341Z,20.43
2019-01-14T08:29:33.814Z,20.42
2019-01-14T08:32:02.188Z,20.42
2019-01-14T08:34:30.672Z,20.41
2019-01-14T08:37:00.854Z,20.41
2019-01-14T08:39:29.156Z,20.40
2019-01-14T08:41:59.342Z,20.39
2019-01-14T08:44:29.374Z,20.38
2019-01-14T08:46:57.750Z,20.39
2019-01-14T08:49:26.136Z,20.39
2019-01-14T08:51:54.511Z,20.39
2019-01-14T08:54:22.900Z,20.37
2019-01-14T08:56:51.342Z,20.36
2019-01-14T08:59:19.731Z,20.36
2019-01-14T09:01:48.195Z,20.36
2019-01-14T09:04:22.254Z,20.34
2019-01-14T09:06:46.736Z,20.34
2019-01-14T09:09:15.122Z,20.33
2019-01-14T09:11:43.498Z,20.33
2019-01-14T09:14:11.883Z,20.32
2019-01-14T09:16:40.263Z,20.32
2019-01-14T09:19:09.100Z,20.32
2019-01-14T09:21:37.477Z,20.31
2019-01-14T09:24:05.869Z,20.31
2019-01-14T09:26:34.247Z,20.30
2019-01-14T09:29:02.623Z,20.30
2019-01-14T09:31:32.946Z,20.33
2019-01-14T09:34:02.571Z,20.35
2019-01-14T09:36:30.949Z,20.34
2019-01-14T09:38:59.324Z,20.33
2019-01-14T09:41:27.713Z,20.36
2019-01-14T09:43:56.399Z,20.36
2019-01-14T09:46:24.788Z,20.38
2019-01-14T09:48:53.160Z,20.38
2019-01-14T09:51:21.545Z,20.40
2019-01-14T09:53:49.925Z,20.43
2019-01-14T09:56:18.304Z,20.43
2019-01-14T09:58:46.680Z,20.42
2019-01-14T10:01:15.065Z,20.41
2019-01-14T10:03:43.510Z,20.41
2019-01-14T10:06:11.904Z,20.41
2019-01-14T10:08:43.151Z,20.39
2019-01-14T10:11:10.409Z,20.41
2019-01-14T10:13:39.561Z,20.45
2019-01-14T10:16:08.022Z,20.46
2019-01-14T10:18:36.394Z,20.43
2019-01-14T10:21:04.856Z,20.46
2019-01-14T10:23:33.227Z,20.47
2019-01-14T10:26:02.591Z,20.51
2019-01-14T10:28:30.959Z,20.52
2019-01-14T10:30:59.351Z,20.55
2019-01-14T10:33:27.723Z,20.52
2019-01-14T10:35:56.107Z,20.55
2019-01-14T10:38:24.485Z,20.58
2019-01-14T10:40:52.881Z,20.58
2019-01-14T10:43:21.250Z,20.60
2019-01-14T10:45:49.644Z,20.62
2019-01-14T10:48:18.183Z,20.63
2019-01-14T10:50:46.574Z,20.64
2019-01-14T10:53:15.829Z,20.63
2019-01-14T10:55:44.213Z,20.66
2019-01-14T10:58:12.588Z,20.65
2019-01-14T11:00:40.975Z,20.66
2019-01-14T11:03:10.387Z,20.68
2019-01-14T11:05:38.832Z,20.71
2019-01-14T11:08:07.217Z,20.73
2019-01-14T11:10:35.592Z,20.71
2019-01-14T11:13:04.847Z,20.69
2019-01-14T11:15:33.225Z,20.73
2019-01-14T11:18:01.609Z,20.77
2019-01-14T11:20:30.754Z,20.89
2019-01-14T11:22:59.676Z,21.06
2019-01-14T11:25:28.047Z,21.17
2019-01-14T11:27:57.976Z,21.20
2019-01-14T11:30:28.287Z,21.17
2019-01-14T11:32:56.746Z,21.10
2019-01-14T11:35:25.130Z,21.03
2019-01-14T11:37:53.509Z,20.96
2019-01-14T11:40:24.323Z,20.93
2019-01-14T11:42:52.709Z,20.88
2019-01-14T11:45:21.085Z,20.86
2019-01-14T11:47:49.476Z,20.85
2019-01-14T11:50:18.389Z,20.83
2019-01-14T11:52:47.016Z,20.87
2019-01-14T11:55:15.383Z,20.91
2019-01-14T11:57:43.772Z,20.97
2019-01-14T12:00:21.196Z,20.99
2019-01-14T12:02:49.656Z,21.07
2019-01-14T12:05:18.111Z,21.20
2019-01-14T12:07:46.493Z,21.32
2019-01-14T12:10:15.443Z,21.50
2019-01-14T12:12:43.831Z,21.55
2019-01-14T12:15:15.651Z,21.56
2019-01-14T12:17:44.040Z,21.55
2019-01-14T12:20:15.981Z,21.50
2019-01-14T12:22:44.798Z,21.50
2019-01-14T12:25:13.619Z,21.48
2019-01-14T12:27:42.015Z,21.56
2019-01-14T12:30:31.791Z,21.56
2019-01-14T12:33:00.730Z,21.48
2019-01-14T12:35:29.228Z,21.48
2019-01-14T12:37:57.853Z,21.45
2019-01-14T12:40:26.230Z,21.42
2019-01-14T12:42:54.617Z,21.39
2019-01-14T12:45:23.230Z,21.35
2019-01-14T12:47:51.757Z,21.31
2019-01-14T12:50:21.678Z,21.27
2019-01-14T12:52:50.122Z,21.21
2019-01-14T12:55:19.553Z,21.16
2019-01-14T12:57:48.097Z,21.14
2019-01-14T13:00:19.268Z,21.10
2019-01-14T13:02:47.643Z,21.09
2019-01-14T13:05:17.668Z,21.09
2019-01-14T13:07:46.043Z,21.14
2019-01-14T13:10:15.570Z,21.15
2019-01-14T13:12:44.051Z,21.14
2019-01-14T13:15:15.379Z,21.12
2019-01-14T13:17:43.753Z,21.12
2019-01-14T13:20:15.192Z,21.15
2019-01-14T13:22:43.839Z,21.14
2019-01-14T13:25:12.670Z,21.12
2019-01-14T13:27:41.866Z,21.10
2019-01-14T13:30:18.608Z,21.08
2019-01-14T13:32:46.995Z,21.03
2019-01-14T13:35:15.547Z,21.00
2019-01-14T13:37:43.925Z,20.97
2019-01-14T13:40:13.248Z,20.93
2019-01-14T13:42:41.696Z,20.90
2019-01-14T13:45:13.221Z,20.87
2019-01-14T13:47:41.801Z,20.86
2019-01-14T13:50:13.124Z,20.85
2019-01-14T13:52:41.761Z,20.84
2019-01-14T13:55:10.485Z,20.81
2019-01-14T13:57:39.029Z,20.80
2019-01-14T14:00:10.466Z,20.78
2019-01-14T14:02:38.844Z,20.76
2019-01-14T14:05:08.070Z,20.74
2019-01-14T14:07:36.446Z,20.71
2019-01-14T14:10:08.115Z,20.71
2019-01-14T14:12:36.484Z,20.70
2019-01-14T14:15:07.508Z,20.67
2019-01-14T14:17:35.887Z,20.65
2019-01-14T14:20:07.463Z,20.63
2019-01-14T14:22:35.837Z,20.60
2019-01-14T14:25:05.962Z,20.57
2019-01-14T14:27:34.403Z,20.56
2019-01-14T14:30:03.434Z,20.54
2019-01-14T14:32:31.800Z,20.52
2019-01-14T14:35:00.247Z,20.51
2019-01-14T14:37:28.575Z,20.50
2019-01-14T14:39:56.958Z,20.48
2019-01-14T14:42:25.333Z,20.46
2019-01-14T14:44:53.706Z,20.45
2019-01-14T14:47:22.098Z,20.42
2019-01-14T14:49:50.468Z,20.40
2019-01-14T14:52:18.856Z,20.38
2019-01-14T14:54:47.240Z,20.36
2019-01-14T14:57:15.626Z,20.35
2019-01-14T14:59:44.000Z,20.34
2019-01-14T15:02:12.561Z,20.33
2019-01-14T15:04:40.940Z,20.30
2019-01-14T15:07:09.322Z,20.29
2019-01-14T15:09:37.782Z,20.28
2019-01-14T15:12:06.171Z,20.27
2019-01-14T15:14:34.546Z,20.24
2019-01-14T15:17:02.932Z,20.23
2019-01-14T15:35:28.295Z,20.13
2019-01-14T15:37:56.687Z,20.09
2019-01-14T15:40:25.202Z,20.09
2019-01-14T15:42:53.586Z,20.08
2019-01-14T15:45:23.697Z,20.08
2019-01-14T15:47:52.147Z,20.06
2019-01-14T15:50:20.535Z,20.05
2019-01-14T15:52:48.917Z,20.03
2019-01-14T15:55:19.930Z,20.04
2019-01-14T15:57:48.318Z,20.02
2019-01-14T16:00:18.529Z,20.02
2019-01-14T16:02:47.609Z,20.03
2019-01-14T16:05:17.492Z,20.02
2019-01-14T16:07:46.116Z,20.01
2019-01-14T16:10:17.037Z,19.99
2019-01-14T16:12:45.413Z,19.99
2019-01-14T16:15:14.229Z,19.97
2019-01-14T16:17:43.336Z,19.98
2019-01-14T16:20:14.222Z,19.95
2019-01-14T16:22:43.313Z,19.97
2019-01-14T16:25:11.691Z,19.95
2019-01-14T16:27:40.074Z,19.94
2019-01-14T16:30:17.224Z,19.93
2019-01-14T16:32:45.650Z,19.92
2019-01-14T16:35:14.192Z,19.92
2019-01-14T16:37:43.483Z,19.90
2019-01-14T16:40:17.932Z,19.89
2019-01-14T16:42:42.368Z,19.90
2019-01-14T16:45:16.289Z,19.86
2019-01-14T16:47:44.965Z,19.86
2019-01-14T16:50:15.063Z,19.84
2019-01-14T16:52:43.856Z,19.84
2019-01-14T16:55:13.978Z,19.84
2019-01-14T16:57:42.360Z,19.84
2019-01-14T17:00:14.411Z,19.83
2019-01-14T17:02:43.655Z,19.82
2019-01-14T17:05:13.637Z,19.83
2019-01-14T17:07:42.035Z,19.82
2019-01-14T17:10:12.947Z,19.81
2019-01-14T17:12:41.325Z,19.81
2019-01-14T17:15:10.160Z,19.82
2019-01-14T17:17:38.529Z,19.81
2019-01-14T17:20:15.561Z,19.82
2019-01-14T17:22:44.103Z,19.81
2019-01-14T17:25:13.157Z,19.82
2019-01-14T17:27:41.538Z,19.83
2019-01-14T17:30:12.764Z,19.86
2019-01-14T17:32:41.149Z,19.85
2019-01-14T17:35:09.691Z,19.86
2019-01-14T17:37:38.071Z,19.85
2019-01-14T17:40:14.674Z,19.88
2019-01-14T17:42:43.053Z,19.87
2019-01-14T17:45:11.892Z,19.86
2019-01-14T17:47:40.525Z,19.86
2019-01-14T17:50:11.967Z,19.86
2019-01-14T17:52:40.512Z,19.85
2019-01-14T17:55:09.448Z,19.85
2019-01-14T17:57:37.828Z,19.85
2019-01-14T18:00:23.611Z,19.86
2019-01-14T18:02:52.071Z,19.87
2019-01-14T18:05:20.458Z,19.87
2019-01-14T18:07:48.838Z,19.86
2019-01-14T18:10:19.011Z,19.86
2019-01-14T18:12:47.322Z,19.87
2019-01-14T18:15:15.775Z,19.86
2019-01-14T18:17:44.439Z,19.86
2019-01-14T18:20:15.066Z,19.85
2019-01-14T18:22:44.624Z,19.85
2019-01-14T18:25:13.246Z,19.84
2019-01-14T18:27:41.642Z,19.82
2019-01-14T18:30:13.325Z,19.85
2019-01-14T18:32:41.701Z,19.83
2019-01-14T18:35:10.092Z,19.85
2019-01-14T18:37:38.464Z,19.85
2019-01-14T18:40:09.994Z,19.84
2019-01-14T18:42:38.530Z,19.84
2019-01-14T18:45:15.579Z,19.85
2019-01-14T18:47:44.793Z,19.87
2019-01-14T18:50:15.724Z,19.84
2019-01-14T18:52:44.774Z,19.84
2019-01-14T18:55:13.228Z,19.82
2019-01-14T18:57:41.608Z,19.81
2019-01-14T19:00:18.966Z,19.79
2019-01-14T19:02:47.420Z,19.79
2019-01-14T19:05:15.805Z,19.78
2019-01-14T19:07:44.952Z,19.79
2019-01-14T19:10:14.195Z,19.79
2019-01-14T19:12:42.574Z,19.79
2019-01-14T19:15:16.127Z,19.79
2019-01-14T19:17:45.125Z,19.79
2019-01-14T19:20:16.448Z,19.74
2019-01-14T19:22:45.091Z,19.77
2019-01-14T19:25:14.351Z,19.78
2019-01-14T19:27:42.730Z,19.78
2019-01-14T19:30:14.158Z,19.79
2019-01-14T19:32:42.539Z,19.78
2019-01-14T19:35:11.083Z,19.78
2019-01-14T19:37:39.822Z,19.78
2019-01-14T19:40:11.440Z,19.78
2019-01-14T19:42:39.821Z,19.78
2019-01-14T19:45:10.439Z,19.78
2019-01-14T19:47:38.837Z,19.78
2019-01-14T19:50:10.423Z,19.78
2019-01-14T19:52:38.809Z,19.77
2019-01-14T19:55:07.622Z,19.75
2019-01-14T19:57:36.086Z,19.77
2019-01-14T20:00:08.009Z,19.75
2019-01-14T20:02:36.392Z,19.75
2019-01-14T20:05:06.509Z,19.76
2019-01-14T20:07:34.900Z,19.76
2019-01-14T20:10:04.317Z,19.75
2019-01-14T20:12:32.708Z,19.77
2019-01-14T20:15:01.080Z,19.75
2019-01-14T20:17:30.279Z,19.75
2019-01-14T20:19:58.721Z,19.76
2019-01-14T20:22:27.109Z,19.75
2019-01-14T20:24:55.494Z,19.75
2019-01-14T20:27:23.879Z,19.75
2019-01-14T20:29:52.246Z,19.75
2019-01-14T20:32:20.633Z,19.76
2019-01-14T20:34:49.006Z,19.74
2019-01-14T20:37:17.394Z,19.74
2019-01-14T20:39:45.899Z,19.75
2019-01-14T20:42:14.289Z,19.75
2019-01-14T20:44:42.674Z,19.71
2019-01-14T20:47:11.062Z,19.74
2019-01-14T20:49:39.434Z,19.72
2019-01-14T20:52:07.821Z,19.73
2019-01-14T20:54:36.194Z,19.72
2019-01-14T20:57:04.588Z,19.72
2019-01-14T20:59:34.520Z,19.74
2019-01-14T21:02:03.331Z,19.72
2019-01-14T21:04:31.697Z,19.72
2019-01-14T21:07:00.149Z,19.72
2019-01-14T21:09:28.531Z,19.70
2019-01-14T21:11:56.905Z,19.70
2019-01-14T21:14:25.293Z,19.68
2019-01-14T21:16:53.668Z,19.69
2019-01-14T21:19:22.057Z,19.69
2019-01-14T21:21:50.440Z,19.69
2019-01-14T21:24:18.818Z,19.67
2019-01-14T21:26:47.195Z,19.68
2019-01-14T21:29:16.407Z,19.67
2019-01-14T21:31:44.778Z,19.65
2019-01-14T21:34:13.165Z,19.66
2019-01-14T21:36:41.547Z,19.60
2019-01-14T21:39:11.671Z,19.60
2019-01-14T21:41:40.051Z,19.64
2019-01-14T21:44:08.509Z,19.63
2019-01-14T21:46:36.890Z,19.65
2019-01-14T21:49:05.269Z,19.63
2019-01-14T21:51:33.640Z,19.62
2019-01-14T21:54:02.028Z,19.63
2019-01-14T21:56:30.398Z,19.64
2019-01-14T21:58:58.781Z,19.64
2019-01-14T22:01:27.159Z,19.64
2019-01-14T22:03:55.546Z,19.65
2019-01-14T22:06:23.925Z,19.66
2019-01-14T22:08:52.308Z,19.65
2019-01-14T22:11:20.686Z,19.64
2019-01-14T22:13:49.068Z,19.66
2019-01-14T22:16:18.002Z,19.65
2019-01-14T22:18:46.948Z,19.66
2019-01-14T22:21:15.326Z,19.65
2019-01-14T22:23:43.714Z,19.65
2019-01-14T22:26:12.101Z,19.66
2019-01-14T22:28:40.488Z,19.66
2019-01-14T22:31:08.863Z,19.66
2019-01-14T22:33:37.251Z,19.67
2019-01-14T22:36:05.624Z,19.68
2019-01-14T22:38:34.023Z,19.67
2019-01-14T22:41:02.404Z,19.67
2019-01-14T22:43:30.783Z,19.65
2019-01-14T22:45:59.168Z,19.65
2019-01-14T22:48:27.539Z,19.66
2019-01-14T22:50:55.925Z,19.66
2019-01-14T22:53:24.314Z,19.66
2019-01-14T22:55:52.794Z,19.66
2019-01-14T22:58:21.170Z,19.66
2019-01-14T23:00:57.204Z,19.66
2019-01-14T23:03:25.721Z,19.65
2019-01-14T23:05:54.104Z,19.65
2019-01-14T23:08:22.556Z,19.61
2019-01-14T23:10:51.017Z,19.62
2019-01-14T23:13:19.385Z,19.61
2019-01-14T23:15:47.768Z,19.61
2019-01-14T23:18:16.136Z,19.62
2019-01-14T23:20:44.528Z,19.61
2019-01-14T23:23:12.906Z,19.60
2019-01-14T23:25:41.299Z,19.59
2019-01-14T23:28:09.672Z,19.59
2019-01-14T23:30:38.057Z,19.59
2019-01-14T23:33:06.430Z,19.59
2019-01-14T23:35:34.811Z,19.58
2019-01-14T23:38:03.255Z,19.58
2019-01-14T23:40:31.647Z,19.57
2019-01-14T23:43:00.032Z,19.56
2019-01-14T23:45:28.513Z,19.55
2019-01-14T23:47:56.891Z,19.55
2019-01-14T23:50:25.276Z,19.55
2019-01-14T23:52:53.652Z,19.54
2019-01-14T23:55:22.047Z,19.53
2019-01-14T23:57:50.422Z,19.52
